EPWR/WRO METAR and TAF weather

Enter ICAO airport designator
Station Type Date Time Source
EPWR METAR 2019/06/18 17:30 UTC NOAA

EPWR 181730Z 12007KT CAVOK 25/13 Q1016


Station Type Date Time Source
EPWR Decoded METAR 2019/06/18 17:30 UTC NOAA

Wroclaw Ii, Poland (EPWR) 51-06N 016-53E 121M
Jun 18, 2019 - 01:30 PM EDT / 2019.06.18 1730 UTC
Wind: from the ESE (120 degrees) at 8 MPH (7 KT):0
Visibility: greater than 7 mile(s):0
Temperature: 77 F (25 C)
Dew Point: 55 F (13 C)
Relative Humidity: 47%
Pressure (altimeter): 30.00 in. Hg (1016 hPa)
ob: EPWR 181730Z 12007KT CAVOK 25/13 Q1016
cycle: 17

Station Type Date Time Source
EPWR TAF 2019/06/18 18:33 UTC NOAA

TAF EPWR 181730Z 1818/1918 14006KT CAVOK
TEMPO 1911/1918 SCT040CB PROB40
TEMPO 1913/1918 VRB17G33KT 4000 TSRA BKN014CB

Example: see airport list